Time;durP1;ratioP1;P1;durP2;ratioP2;P2;SDS_P1;SDS_P2;PMS_P1;PMS_P2;Temp;Humidity;BMP_temperature;BMP_pressure;BME280_temperature;BME280_humidity;BME280_pressure;Samples;Min_cycle;Max_cycle;Signal;HPM_P1;HPM_P2
2023/07/20 04:01:47;;;;;;;;;;;19.00;93.80;;;;;;5395753;23;19960;-64
2023/07/20 04:04:15;;;;;;;;;;;18.90;94.00;;;;;;5038830;28;19960;-64
2023/07/20 04:06:40;;;;;;;;;;;18.80;94.30;;;;;;5034319;28;19952;-63
2023/07/20 04:09:06;;;;;;;;;;;18.80;94.50;;;;;;5034280;28;19909;-64
2023/07/20 04:11:31;;;;;;;;;;;18.80;94.60;;;;;;5034335;28;19918;-63
2023/07/20 04:13:57;;;;;;;;;;;18.80;94.90;;;;;;5034258;28;19916;-64
2023/07/20 04:16:22;;;;;;;;;;;18.80;95.10;;;;;;5057319;23;20296;-69
2023/07/20 04:18:48;;;;;;;;;;;18.80;95.40;;;;;;5033312;28;19909;-70
2023/07/20 04:21:13;;;;;;;;;;;19.00;95.10;;;;;;5034570;28;20284;-69
2023/07/20 04:23:39;;;;;;;;;;;18.90;95.30;;;;;;5034458;28;20338;-69
2023/07/20 04:26:06;;;;;;;;;;;18.80;95.40;;;;;;5021090;28;19910;-70
2023/07/20 04:28:32;;;;;;;;;;;18.80;95.70;;;;;;5013930;28;19920;-69
2023/07/20 04:31:09;;;;;;;;;;;18.90;95.50;;;;;;5013207;28;19914;-69
2023/07/20 04:33:34;;;;;;;;;;;18.90;95.50;;;;;;5014804;28;20274;-69
2023/07/20 04:36:00;;;;;;;;;;;18.90;95.80;;;;;;5014214;28;19916;-69
2023/07/20 04:38:26;;;;;;;;;;;19.10;95.30;;;;;;5014848;28;19953;-69
2023/07/20 04:40:51;;;;;;;;;;;19.30;95.00;;;;;;5014298;28;20293;-69
2023/07/20 04:43:17;;;;;;;;;;;19.20;94.90;;;;;;5013001;28;20004;-69
2023/07/20 04:45:43;;;;;;;;;;;19.30;94.90;;;;;;5013847;28;19940;-69
2023/07/20 04:48:10;;;;;;;;;;;19.30;94.70;;;;;;5013199;28;19932;-67
2023/07/20 04:50:35;;;;;;;;;;;19.10;95.20;;;;;;5015139;28;19917;-68
2023/07/20 04:53:01;;;;;;;;;;;19.20;95.30;;;;;;5015130;28;19917;-67
2023/07/20 04:55:27;;;;;;;;;;;19.10;95.30;;;;;;5015247;28;20420;-68
2023/07/20 04:57:53;;;;;;;;;;;19.10;95.80;;;;;;5014898;28;20004;-68
2023/07/20 05:00:19;;;;;;;;;;;19.10;95.70;;;;;;5017313;28;20362;-68
2023/07/20 05:02:47;;;;;;;;;;;18.90;96.10;;;;;;5020073;28;19909;-69
2023/07/20 05:05:13;;;;;;;;;;;19.00;96.60;;;;;;5016512;28;19925;-68
2023/07/20 05:07:38;;;;;;;;;;;19.00;96.60;;;;;;5015398;28;19916;-67
2023/07/20 05:10:04;;;;;;;;;;;19.20;96.20;;;;;;5014480;28;19915;-68
2023/07/20 05:12:29;;;;;;;;;;;19.20;96.20;;;;;;5017006;28;19914;-67
2023/07/20 05:14:55;;;;;;;;;;;19.20;96.50;;;;;;5018210;28;20428;-67
2023/07/20 05:17:20;;;;;;;;;;;19.10;96.70;;;;;;5018621;28;19916;-68
2023/07/20 05:19:46;;;;;;;;;;;18.90;96.90;;;;;;5017049;28;19916;-69
2023/07/20 05:22:13;;;;;;;;;;;18.80;97.40;;;;;;5016945;28;19914;-68
2023/07/20 05:24:38;;;;;;;;;;;18.80;97.80;;;;;;5017723;28;19909;-68
2023/07/20 05:27:04;;;;;;;;;;;18.90;97.80;;;;;;5018098;28;19916;-68
2023/07/20 05:29:29;;;;;;;;;;;18.90;97.80;;;;;;5018260;28;19952;-68
2023/07/20 05:31:55;;;;;;;;;;;19.00;97.90;;;;;;5015783;28;19918;-67
2023/07/20 05:34:20;;;;;;;;;;;19.20;97.50;;;;;;5024193;28;20016;-68
2023/07/20 05:36:46;;;;;;;;;;;19.30;97.50;;;;;;5017459;28;19952;-69
2023/07/20 05:39:15;;;;;;;;;;;19.30;97.20;;;;;;5017742;28;19959;-68
2023/07/20 05:41:41;;;;;;;;;;;19.10;97.50;;;;;;5017815;28;19910;-68
2023/07/20 05:44:06;;;;;;;;;;;19.10;97.70;;;;;;5017041;28;20024;-68
2023/07/20 05:46:31;;;;;;;;;;;19.30;97.80;;;;;;5016830;28;19914;-68
2023/07/20 05:48:57;;;;;;;;;;;19.30;97.90;;;;;;5016040;28;19999;-68
2023/07/20 05:51:22;;;;;;;;;;;19.40;97.80;;;;;;5017514;28;20274;-69
2023/07/20 05:53:48;;;;;;;;;;;19.40;97.90;;;;;;5048991;28;19916;-68
2023/07/20 05:56:14;;;;;;;;;;;19.50;97.80;;;;;;5017279;28;20370;-68
2023/07/20 05:58:39;;;;;;;;;;;19.50;97.90;;;;;;5016475;28;20333;-68
2023/07/20 06:01:06;;;;;;;;;;;19.70;97.70;;;;;;5016127;28;19922;-68
2023/07/20 06:03:33;;;;;;;;;;;19.70;97.70;;;;;;5016730;28;20528;-68
2023/07/20 06:06:00;;;;;;;;;;;19.80;97.80;;;;;;5013726;28;19920;-67
2023/07/20 06:08:26;;;;;;;;;;;19.90;97.70;;;;;;5016474;28;19935;-70
2023/07/20 06:10:52;;;;;;;;;;;20.00;97.70;;;;;;5014480;28;20365;-68
2023/07/20 06:13:17;;;;;;;;;;;20.10;97.80;;;;;;5016460;28;19921;-68
2023/07/20 06:15:43;;;;;;;;;;;20.20;97.70;;;;;;5014731;28;19918;-68
2023/07/20 06:18:08;;;;;;;;;;;20.20;97.60;;;;;;5016065;28;19913;-68
2023/07/20 06:20:34;;;;;;;;;;;20.40;97.50;;;;;;5025406;28;19945;-68
2023/07/20 06:22:59;;;;;;;;;;;20.50;96.90;;;;;;5016089;28;19909;-68
2023/07/20 06:25:25;;;;;;;;;;;20.60;96.80;;;;;;5016363;28;19917;-67
2023/07/20 06:27:51;;;;;;;;;;;20.70;96.40;;;;;;5017451;28;19959;-68
2023/07/20 06:30:17;;;;;;;;;;;20.80;96.20;;;;;;5016825;28;19910;-68
2023/07/20 06:32:42;;;;;;;;;;;20.90;95.60;;;;;;5016081;28;20416;-71
2023/07/20 06:35:08;;;;;;;;;;;21.00;95.10;;;;;;5015792;28;19914;-69
2023/07/20 06:37:34;;;;;;;;;;;21.00;95.40;;;;;;5018025;28;20289;-69
2023/07/20 06:39:59;;;;;;;;;;;21.10;95.40;;;;;;5016397;28;19996;-68
2023/07/20 06:42:25;;;;;;;;;;;21.20;95.40;;;;;;5016117;28;20378;-67
2023/07/20 06:44:50;;;;;;;;;;;21.20;95.00;;;;;;5015816;28;19976;-68
2023/07/20 06:47:15;;;;;;;;;;;21.30;94.90;;;;;;5016389;28;19913;-70
2023/07/20 06:49:41;;;;;;;;;;;21.30;94.60;;;;;;5015245;28;20008;-70
2023/07/20 06:52:07;;;;;;;;;;;21.40;94.70;;;;;;5015539;28;19913;-69
2023/07/20 06:54:32;;;;;;;;;;;21.50;94.50;;;;;;5014650;28;19920;-69
2023/07/20 06:56:58;;;;;;;;;;;21.70;94.10;;;;;;5016178;28;19909;-69
2023/07/20 06:59:24;;;;;;;;;;;21.80;93.70;;;;;;5015210;28;19972;-69
2023/07/20 07:01:49;;;;;;;;;;;21.90;93.60;;;;;;5015034;28;19941;-69
2023/07/20 07:04:15;;;;;;;;;;;22.00;93.50;;;;;;5014739;28;19917;-69
2023/07/20 07:06:41;;;;;;;;;;;22.10;93.20;;;;;;5015854;28;20285;-70
2023/07/20 07:09:08;;;;;;;;;;;22.20;93.00;;;;;;5016079;28;19917;-69
2023/07/20 07:11:33;;;;;;;;;;;22.20;93.00;;;;;;5015919;28;20289;-70
2023/07/20 07:13:59;;;;;;;;;;;22.10;93.00;;;;;;5016071;28;19917;-69
2023/07/20 07:16:24;;;;;;;;;;;22.10;92.90;;;;;;5014132;28;19929;-69
2023/07/20 07:18:50;;;;;;;;;;;21.90;93.20;;;;;;5015857;28;19909;-69
2023/07/20 07:21:16;;;;;;;;;;;21.90;93.20;;;;;;5015393;28;19910;-69
2023/07/20 07:23:41;;;;;;;;;;;22.10;93.00;;;;;;5016095;28;19914;-68
2023/07/20 07:26:07;;;;;;;;;;;22.20;93.00;;;;;;5015361;28;19936;-68
2023/07/20 07:28:32;;;;;;;;;;;22.20;92.90;;;;;;5014054;28;19914;-70
2023/07/20 07:30:58;;;;;;;;;;;22.30;92.80;;;;;;5015301;28;19913;-68
2023/07/20 07:33:23;;;;;;;;;;;22.40;92.50;;;;;;5015114;28;19909;-69
2023/07/20 07:35:49;;;;;;;;;;;22.70;92.10;;;;;;5014597;28;19909;-69
2023/07/20 07:38:15;;;;;;;;;;;22.80;91.90;;;;;;5014060;28;20393;-69
2023/07/20 07:40:40;;;;;;;;;;;22.80;91.80;;;;;;5015476;28;19909;-69
2023/07/20 07:43:06;;;;;;;;;;;23.10;91.70;;;;;;5015614;28;19913;-69
2023/07/20 07:45:35;;;;;;;;;;;23.30;91.20;;;;;;5014963;28;19913;-69
2023/07/20 07:48:01;;;;;;;;;;;23.40;91.00;;;;;;5013890;28;19917;-68
2023/07/20 07:50:27;;;;;;;;;;;23.50;91.00;;;;;;5013888;28;20282;-69
2023/07/20 07:52:52;;;;;;;;;;;23.60;91.00;;;;;;5014830;28;19923;-69
2023/07/20 07:55:18;;;;;;;;;;;23.70;90.30;;;;;;5013675;28;19909;-69
2023/07/20 07:57:43;;;;;;;;;;;23.30;90.90;;;;;;5014932;28;20004;-68
2023/07/20 08:00:14;;;;;;;;;;;23.20;91.30;;;;;;5014687;28;20009;-68
2023/07/20 08:02:40;;;;;;;;;;;23.10;91.30;;;;;;5013561;28;20000;-68
2023/07/20 08:05:06;;;;;;;;;;;23.00;91.40;;;;;;5014703;28;20008;-68
2023/07/20 08:07:32;;;;;;;;;;;23.00;91.30;;;;;;5013601;28;19955;-68
2023/07/20 08:09:57;;;;;;;;;;;22.90;91.50;;;;;;5015917;28;20003;-67
2023/07/20 08:12:23;;;;;;;;;;;23.00;91.50;;;;;;5015240;28;19914;-68
2023/07/20 08:14:48;;;;;;;;;;;23.20;91.10;;;;;;5013220;28;19914;-69
2023/07/20 08:17:14;;;;;;;;;;;23.60;90.40;;;;;;5012720;28;19997;-68
2023/07/20 08:19:41;;;;;;;;;;;24.40;90.00;;;;;;5014342;28;19910;-69
2023/07/20 08:22:07;;;;;;;;;;;26.20;85.20;;;;;;5014829;28;19956;-67
2023/07/20 08:24:33;;;;;;;;;;;28.00;80.70;;;;;;5014247;28;19914;-68
2023/07/20 08:26:58;;;;;;;;;;;30.20;76.10;;;;;;5014284;28;19910;-69
2023/07/20 08:29:24;;;;;;;;;;;32.20;70.80;;;;;;5012870;28;19917;-66
2023/07/20 08:31:49;;;;;;;;;;;33.00;68.40;;;;;;5012554;28;20004;-68
2023/07/20 08:34:15;;;;;;;;;;;33.70;66.00;;;;;;5014343;28;19959;-68
2023/07/20 08:36:40;;;;;;;;;;;34.60;64.00;;;;;;5012521;28;19909;-68
2023/07/20 08:39:07;;;;;;;;;;;34.80;63.40;;;;;;5014466;28;20389;-68
2023/07/20 08:41:34;;;;;;;;;;;35.70;61.50;;;;;;5014690;28;19914;-68
2023/07/20 08:44:00;;;;;;;;;;;36.50;60.40;;;;;;5013079;28;20378;-68
2023/07/20 08:46:27;;;;;;;;;;;35.40;60.00;;;;;;5012863;28;19909;-68
2023/07/20 08:48:52;;;;;;;;;;;34.00;61.70;;;;;;5013806;28;19949;-68
2023/07/20 08:51:18;;;;;;;;;;;33.80;62.00;;;;;;5013846;28;19961;-68
2023/07/20 08:53:45;;;;;;;;;;;32.60;62.20;;;;;;5013795;28;19921;-67
2023/07/20 08:56:11;;;;;;;;;;;32.60;62.30;;;;;;5012415;28;19914;-68
2023/07/20 08:58:37;;;;;;;;;;;33.00;62.10;;;;;;5014223;28;20424;-68
2023/07/20 09:01:03;;;;;;;;;;;32.70;62.00;;;;;;5013607;28;19916;-68
2023/07/20 09:03:28;;;;;;;;;;;32.10;62.90;;;;;;5013645;28;19910;-68
2023/07/20 09:05:54;;;;;;;;;;;32.60;63.20;;;;;;5013568;28;19910;-68
2023/07/20 09:08:19;;;;;;;;;;;34.20;60.30;;;;;;5012521;28;19916;-68
2023/07/20 09:10:45;;;;;;;;;;;36.10;58.30;;;;;;5012108;28;20359;-68
2023/07/20 09:13:13;;;;;;;;;;;37.60;56.10;;;;;;5013816;28;19949;-68
2023/07/20 09:15:40;;;;;;;;;;;38.40;55.10;;;;;;5014124;28;19956;-68
2023/07/20 09:18:05;;;;;;;;;;;39.10;54.20;;;;;;5014162;28;19910;-69
2023/07/20 09:20:32;;;;;;;;;;;39.30;53.60;;;;;;5014352;28;20289;-68
2023/07/20 09:22:57;;;;;;;;;;;39.80;53.00;;;;;;5013938;28;20345;-67
2023/07/20 09:25:23;;;;;;;;;;;40.10;52.40;;;;;;5013801;28;19955;-67
2023/07/20 09:27:49;;;;;;;;;;;40.30;52.10;;;;;;5013670;28;19909;-67
2023/07/20 09:30:15;;;;;;;;;;;40.30;51.60;;;;;;5013999;28;19910;-68
2023/07/20 09:32:42;;;;;;;;;;;39.40;51.20;;;;;;5012371;28;19914;-68
2023/07/20 09:35:14;;;;;;;;;;;39.20;51.60;;;;;;5013669;28;19909;-68
2023/07/20 09:37:40;;;;;;;;;;;39.60;51.60;;;;;;5013869;28;19948;-68
2023/07/20 09:40:09;;;;;;;;;;;40.00;51.00;;;;;;5013978;28;19916;-68
2023/07/20 09:42:35;;;;;;;;;;;39.60;51.20;;;;;;5014036;28;19995;-68
2023/07/20 09:45:00;;;;;;;;;;;40.60;50.40;;;;;;5013949;28;19948;-69
2023/07/20 09:47:27;;;;;;;;;;;40.20;49.90;;;;;;5014350;28;20345;-68
2023/07/20 09:49:59;;;;;;;;;;;41.20;49.90;;;;;;5015027;28;19909;-68
2023/07/20 09:52:25;;;;;;;;;;;42.00;49.40;;;;;;5014164;28;19984;-69
2023/07/20 09:54:51;;;;;;;;;;;42.50;48.40;;;;;;5012586;28;20358;-68
2023/07/20 09:57:16;;;;;;;;;;;42.40;48.20;;;;;;5015533;28;19941;-68
2023/07/20 09:59:42;;;;;;;;;;;42.10;47.70;;;;;;5017224;28;20028;-68
2023/07/20 10:02:11;;;;;;;;;;;42.10;47.80;;;;;;5017103;28;19956;-68
2023/07/20 10:04:37;;;;;;;;;;;42.10;47.50;;;;;;5016163;28;19910;-68
2023/07/20 10:07:05;;;;;;;;;;;42.30;47.60;;;;;;5017138;28;20285;-68
2023/07/20 10:09:32;;;;;;;;;;;41.60;48.10;;;;;;5017349;28;19909;-68
2023/07/20 10:11:58;;;;;;;;;;;42.20;47.60;;;;;;5017715;28;20336;-68
2023/07/20 10:14:25;;;;;;;;;;;42.50;48.10;;;;;;5017615;28;19917;-68
2023/07/20 10:16:52;;;;;;;;;;;42.90;46.90;;;;;;5018504;28;19917;-68
2023/07/20 10:19:24;;;;;;;;;;;40.90;47.80;;;;;;5019723;28;19910;-68
2023/07/20 10:21:53;;;;;;;;;;;41.40;47.80;;;;;;5019908;28;19909;-68
2023/07/20 10:24:18;;;;;;;;;;;41.70;47.50;;;;;;5021269;28;19910;-67
2023/07/20 10:26:44;;;;;;;;;;;41.80;47.10;;;;;;5020661;28;19909;-68
2023/07/20 10:29:10;;;;;;;;;;;41.90;46.90;;;;;;5018079;28;19909;-68
2023/07/20 10:31:35;;;;;;;;;;;40.00;48.00;;;;;;5016653;28;19949;-69
2023/07/20 10:34:01;;;;;;;;;;;39.00;48.10;;;;;;5018673;28;20342;-68
2023/07/20 10:36:27;;;;;;;;;;;37.90;49.00;;;;;;5020899;28;19909;-68
2023/07/20 10:38:54;;;;;;;;;;;36.90;49.30;;;;;;5017991;28;19917;-68
2023/07/20 10:41:20;;;;;;;;;;;38.00;49.60;;;;;;5016007;28;19916;-68
2023/07/20 10:43:45;;;;;;;;;;;39.20;48.70;;;;;;5017432;28;19910;-69
2023/07/20 10:46:12;;;;;;;;;;;40.20;48.10;;;;;;5018283;28;19910;-67
2023/07/20 10:48:57;;;;;;;;;;;40.70;47.80;;;;;;5016374;28;19917;-68
2023/07/20 10:51:23;;;;;;;;;;;39.20;48.00;;;;;;5015985;28;19913;-68
2023/07/20 10:53:49;;;;;;;;;;;39.40;48.00;;;;;;5016558;28;19909;-68
2023/07/20 10:56:18;;;;;;;;;;;40.20;47.70;;;;;;5016002;28;20024;-68
2023/07/20 10:58:44;;;;;;;;;;;40.10;47.30;;;;;;5014743;28;19909;-69
2023/07/20 11:01:13;;;;;;;;;;;39.90;47.30;;;;;;5015320;28;20000;-68
2023/07/20 11:03:39;;;;;;;;;;;38.10;48.00;;;;;;5016078;28;19910;-68
2023/07/20 11:06:23;;;;;;;;;;;36.20;49.50;;;;;;5015404;28;20322;-68
2023/07/20 11:08:49;;;;;;;;;;;34.80;50.80;;;;;;5014857;28;20004;-69
2023/07/20 11:11:21;;;;;;;;;;;34.00;52.10;;;;;;5014394;28;20008;-68
2023/07/20 11:13:53;;;;;;;;;;;34.80;52.00;;;;;;5016155;28;19910;-69
2023/07/20 11:16:19;;;;;;;;;;;35.90;50.80;;;;;;5015329;28;19949;-68
2023/07/20 11:18:44;;;;;;;;;;;35.20;50.80;;;;;;5014368;28;19910;-68
2023/07/20 11:21:10;;;;;;;;;;;34.00;51.30;;;;;;5015866;28;19909;-68
2023/07/20 11:23:37;;;;;;;;;;;32.90;52.50;;;;;;5015671;28;19916;-67
2023/07/20 11:26:03;;;;;;;;;;;32.20;53.70;;;;;;5015642;28;19920;-68
2023/07/20 11:28:30;;;;;;;;;;;31.50;53.70;;;;;;5015773;28;20297;-68
2023/07/20 11:30:55;;;;;;;;;;;30.50;54.20;;;;;;5015164;28;19916;-68
2023/07/20 11:33:20;;;;;;;;;;;30.20;55.10;;;;;;5015588;28;19913;-68
2023/07/20 11:35:47;;;;;;;;;;;29.80;55.10;;;;;;5015709;28;19909;-68
2023/07/20 11:38:13;;;;;;;;;;;29.80;54.60;;;;;;5015511;28;20224;-69
2023/07/20 11:40:42;;;;;;;;;;;30.00;54.60;;;;;;5015598;28;20354;-68
2023/07/20 11:43:08;;;;;;;;;;;30.00;55.30;;;;;;5015306;28;19988;-69
2023/07/20 11:45:34;;;;;;;;;;;29.80;55.70;;;;;;5016135;28;20290;-68
2023/07/20 11:48:00;;;;;;;;;;;29.80;55.80;;;;;;5015167;28;20373;-68
2023/07/20 11:50:25;;;;;;;;;;;29.80;55.70;;;;;;5015671;28;19909;-69
2023/07/20 11:52:51;;;;;;;;;;;29.80;55.50;;;;;;5015147;28;19914;-68
2023/07/20 11:55:16;;;;;;;;;;;29.30;55.50;;;;;;5015390;28;19909;-70
2023/07/20 11:58:00;;;;;;;;;;;29.00;56.10;;;;;;5015324;28;19913;-69
2023/07/20 12:00:25;;;;;;;;;;;28.70;56.70;;;;;;5015320;28;19909;-68
2023/07/20 12:02:53;;;;;;;;;;;28.80;57.20;;;;;;5014842;28;19916;-69
2023/07/20 12:05:18;;;;;;;;;;;28.60;57.20;;;;;;5013624;28;19916;-69
2023/07/20 12:07:44;;;;;;;;;;;27.90;56.40;;;;;;5014875;28;19972;-68
2023/07/20 12:10:10;;;;;;;;;;;27.70;57.80;;;;;;5015145;28;19917;-68
2023/07/20 12:12:40;;;;;;;;;;;27.80;58.30;;;;;;5014582;28;19913;-68
2023/07/20 12:15:14;;;;;;;;;;;28.10;58.50;;;;;;5014866;28;20293;-68
2023/07/20 12:17:43;;;;;;;;;;;28.50;58.70;;;;;;5014431;28;19980;-68
2023/07/20 12:20:09;;;;;;;;;;;28.70;58.00;;;;;;5014480;28;20008;-69
2023/07/20 12:22:43;;;;;;;;;;;28.70;56.80;;;;;;5014674;28;19960;-68
2023/07/20 12:25:09;;;;;;;;;;;28.40;56.60;;;;;;5014570;28;19932;-68
2023/07/20 12:27:37;;;;;;;;;;;28.40;56.90;;;;;;5014567;28;19909;-69
2023/07/20 12:30:04;;;;;;;;;;;28.00;56.90;;;;;;5014739;28;19959;-68
2023/07/20 12:32:30;;;;;;;;;;;28.20;56.90;;;;;;5014406;28;19937;-68
2023/07/20 12:34:55;;;;;;;;;;;28.10;56.70;;;;;;5014542;28;20366;-68
2023/07/20 12:37:20;;;;;;;;;;;28.30;56.30;;;;;;5014765;28;19917;-68
2023/07/20 12:39:47;;;;;;;;;;;28.20;56.90;;;;;;5014494;28;19910;-68
2023/07/20 12:42:14;;;;;;;;;;;28.20;56.00;;;;;;5014184;28;20298;-67
2023/07/20 12:44:40;;;;;;;;;;;28.40;56.20;;;;;;5014385;28;19913;-69
2023/07/20 12:47:05;;;;;;;;;;;28.40;56.30;;;;;;5013926;28;19972;-68
2023/07/20 12:49:31;;;;;;;;;;;28.40;56.10;;;;;;5013998;28;19910;-68
2023/07/20 12:51:57;;;;;;;;;;;28.10;56.00;;;;;;5014020;28;20329;-69
2023/07/20 12:54:22;;;;;;;;;;;28.10;55.20;;;;;;5014092;28;19920;-67
2023/07/20 12:56:48;;;;;;;;;;;28.00;55.40;;;;;;5013786;28;19910;-68
2023/07/20 12:59:13;;;;;;;;;;;28.10;55.60;;;;;;5014187;28;20227;-68
2023/07/20 13:01:41;;;;;;;;;;;28.20;56.10;;;;;;5013559;28;20362;-68
2023/07/20 13:04:08;;;;;;;;;;;28.20;56.20;;;;;;5014198;28;19913;-67
2023/07/20 13:06:34;;;;;;;;;;;28.50;56.00;;;;;;5013691;28;19910;-68
2023/07/20 13:09:00;;;;;;;;;;;28.80;55.60;;;;;;5013795;28;19914;-70
2023/07/20 13:11:26;;;;;;;;;;;28.80;55.10;;;;;;5014238;28;19920;-68
2023/07/20 13:13:51;;;;;;;;;;;28.80;54.10;;;;;;5014294;28;19909;-68
2023/07/20 13:16:17;;;;;;;;;;;28.70;54.90;;;;;;5013236;28;20290;-68
2023/07/20 13:18:42;;;;;;;;;;;28.70;54.50;;;;;;5013940;28;19910;-68
2023/07/20 13:21:10;;;;;;;;;;;28.60;54.80;;;;;;5014438;28;20378;-68
2023/07/20 13:23:36;;;;;;;;;;;28.40;55.00;;;;;;5017389;28;19909;-68
2023/07/20 13:26:03;;;;;;;;;;;28.50;55.00;;;;;;5022076;28;19914;-69
2023/07/20 13:28:28;;;;;;;;;;;28.50;54.90;;;;;;5025160;28;19909;-69
2023/07/20 13:30:53;;;;;;;;;;;28.60;54.40;;;;;;5018597;28;19909;-69
2023/07/20 13:33:19;;;;;;;;;;;28.20;54.30;;;;;;5018385;28;20271;-69
2023/07/20 13:35:44;;;;;;;;;;;28.10;54.90;;;;;;5017968;28;19917;-68
2023/07/20 13:38:10;;;;;;;;;;;28.10;55.10;;;;;;5018049;28;19910;-69
2023/07/20 13:40:36;;;;;;;;;;;28.10;54.50;;;;;;5017570;28;20350;-69
2023/07/20 13:43:02;;;;;;;;;;;28.20;54.10;;;;;;5018001;28;19917;-68
2023/07/20 13:45:27;;;;;;;;;;;28.30;53.80;;;;;;5015812;28;19917;-67
2023/07/20 13:47:53;;;;;;;;;;;28.30;53.70;;;;;;5014720;28;19921;-69
2023/07/20 13:50:18;;;;;;;;;;;28.00;53.70;;;;;;5017546;28;19917;-68
2023/07/20 13:52:44;;;;;;;;;;;28.20;53.90;;;;;;5017235;28;20004;-68
2023/07/20 13:55:09;;;;;;;;;;;28.10;54.20;;;;;;5017507;28;19917;-68
2023/07/20 13:57:35;;;;;;;;;;;27.90;54.30;;;;;;5017448;28;19909;-68
2023/07/20 14:00:02;;;;;;;;;;;28.00;54.40;;;;;;5017210;28;19910;-68
2023/07/20 14:02:27;;;;;;;;;;;28.00;53.90;;;;;;5016925;28;20005;-68
2023/07/20 14:04:55;;;;;;;;;;;28.10;53.70;;;;;;5017041;28;19972;-68
2023/07/20 14:07:21;;;;;;;;;;;28.00;53.50;;;;;;5017317;28;19949;-68
2023/07/20 14:09:46;;;;;;;;;;;28.20;54.10;;;;;;5016984;28;20003;-68
2023/07/20 14:12:13;;;;;;;;;;;27.80;53.60;;;;;;5016893;28;19924;-68
2023/07/20 14:14:40;;;;;;;;;;;27.90;54.50;;;;;;5017083;28;19921;-68
2023/07/20 14:17:06;;;;;;;;;;;28.10;54.10;;;;;;5015630;28;19913;-68
2023/07/20 14:19:32;;;;;;;;;;;28.20;54.10;;;;;;5016989;28;19936;-68
2023/07/20 14:21:59;;;;;;;;;;;28.40;54.10;;;;;;5016909;28;19909;-68
2023/07/20 14:24:25;;;;;;;;;;;28.30;53.30;;;;;;5016805;28;19913;-68
2023/07/20 14:26:50;;;;;;;;;;;28.50;53.70;;;;;;5016440;28;19920;-68
2023/07/20 14:29:17;;;;;;;;;;;28.60;53.40;;;;;;5014598;28;19913;-68
2023/07/20 14:31:43;;;;;;;;;;;28.50;52.90;;;;;;5014516;28;19918;-68
2023/07/20 14:34:09;;;;;;;;;;;28.50;52.90;;;;;;5016995;28;19917;-68
2023/07/20 14:36:34;;;;;;;;;;;28.40;52.40;;;;;;5016319;28;19983;-68
2023/07/20 14:38:59;;;;;;;;;;;28.40;52.70;;;;;;5016495;28;19957;-70
2023/07/20 14:41:26;;;;;;;;;;;28.50;52.80;;;;;;5016849;28;19909;-68
2023/07/20 14:43:51;;;;;;;;;;;28.70;52.90;;;;;;5011919;28;20384;-68
2023/07/20 14:46:17;;;;;;;;;;;28.70;52.70;;;;;;5015901;28;19959;-67
2023/07/20 14:48:42;;;;;;;;;;;28.60;52.90;;;;;;5015567;28;19909;-68
2023/07/20 14:51:08;;;;;;;;;;;28.50;53.10;;;;;;5015636;28;19917;-67
2023/07/20 14:53:34;;;;;;;;;;;28.30;53.40;;;;;;5012767;28;20227;-68
2023/07/20 14:56:00;;;;;;;;;;;28.30;53.70;;;;;;5015785;28;20404;-69
2023/07/20 14:58:26;;;;;;;;;;;28.40;53.50;;;;;;5000161;28;19913;-68
2023/07/20 15:00:51;;;;;;;;;;;28.50;53.40;;;;;;5015612;28;19960;-69
2023/07/20 15:03:17;;;;;;;;;;;28.50;53.00;;;;;;5015349;28;19913;-67
2023/07/20 15:05:42;;;;;;;;;;;28.40;52.80;;;;;;5015385;28;20286;-69
2023/07/20 15:08:08;;;;;;;;;;;28.30;52.00;;;;;;5011243;28;19910;-67
2023/07/20 15:10:34;;;;;;;;;;;28.10;52.20;;;;;;5011541;28;20627;-67
2023/07/20 15:13:00;;;;;;;;;;;27.80;52.60;;;;;;5013374;28;19925;-69
2023/07/20 15:15:25;;;;;;;;;;;27.70;53.10;;;;;;5015768;28;19917;-69
2023/07/20 15:17:51;;;;;;;;;;;27.60;53.00;;;;;;5014790;28;19913;-68
2023/07/20 15:20:17;;;;;;;;;;;27.70;52.90;;;;;;5015495;28;19996;-69
2023/07/20 15:22:42;;;;;;;;;;;27.90;53.10;;;;;;5015367;28;19917;-69
2023/07/20 15:25:11;;;;;;;;;;;28.10;52.40;;;;;;5013948;28;19910;-69
2023/07/20 15:27:37;;;;;;;;;;;28.20;52.40;;;;;;5015311;28;19910;-69
2023/07/20 15:30:02;;;;;;;;;;;28.10;52.30;;;;;;5015052;28;19914;-69
2023/07/20 15:32:27;;;;;;;;;;;28.30;51.70;;;;;;5015029;28;20012;-68
2023/07/20 15:34:53;;;;;;;;;;;28.40;51.70;;;;;;5015258;28;19956;-68
2023/07/20 15:37:18;;;;;;;;;;;28.50;52.30;;;;;;5013914;28;19909;-69
2023/07/20 15:39:47;;;;;;;;;;;28.50;52.70;;;;;;5014592;28;19916;-69
2023/07/20 15:42:13;;;;;;;;;;;28.20;52.50;;;;;;5015141;28;20246;-69
2023/07/20 15:44:38;;;;;;;;;;;28.30;52.80;;;;;;5014745;28;19909;-68
2023/07/20 15:47:06;;;;;;;;;;;28.40;52.40;;;;;;5012817;28;19913;-69
2023/07/20 15:49:31;;;;;;;;;;;28.30;53.10;;;;;;5012456;28;19918;-69
2023/07/20 15:51:57;;;;;;;;;;;28.30;52.60;;;;;;5006781;28;20070;-69
2023/07/20 15:54:22;;;;;;;;;;;28.30;52.70;;;;;;5013039;28;19921;-69
2023/07/20 15:56:48;;;;;;;;;;;28.50;52.50;;;;;;5014741;28;19959;-71
2023/07/20 15:59:14;;;;;;;;;;;28.60;52.50;;;;;;5015248;28;19916;-69
2023/07/20 16:01:41;;;;;;;;;;;28.60;51.80;;;;;;5013139;28;19914;-69
2023/07/20 16:04:06;;;;;;;;;;;28.60;51.70;;;;;;5014578;28;19917;-70
2023/07/20 16:06:32;;;;;;;;;;;28.30;51.80;;;;;;5014915;28;19913;-68
2023/07/20 16:08:58;;;;;;;;;;;28.40;51.60;;;;;;5014800;28;19921;-70
2023/07/20 16:11:24;;;;;;;;;;;28.40;51.60;;;;;;5015010;28;19914;-73
2023/07/20 16:13:50;;;;;;;;;;;28.40;52.40;;;;;;5015161;28;19910;-70
2023/07/20 16:16:15;;;;;;;;;;;28.40;51.50;;;;;;5015650;28;19921;-70
2023/07/20 16:18:41;;;;;;;;;;;28.50;51.50;;;;;;5012794;28;19918;-71
2023/07/20 16:21:06;;;;;;;;;;;28.40;51.40;;;;;;5013277;28;19909;-70
2023/07/20 16:23:32;;;;;;;;;;;28.40;51.30;;;;;;5022661;28;19914;-69
2023/07/20 16:25:57;;;;;;;;;;;28.60;51.20;;;;;;5013784;28;19968;-69
2023/07/20 16:28:23;;;;;;;;;;;28.60;51.80;;;;;;5014441;28;19913;-68
2023/07/20 16:30:48;;;;;;;;;;;28.70;51.00;;;;;;5014505;28;19909;-69
2023/07/20 16:33:16;;;;;;;;;;;28.60;51.30;;;;;;5013577;28;21411;-69
2023/07/20 16:35:41;;;;;;;;;;;28.50;51.80;;;;;;5012948;28;19909;-69
2023/07/20 16:38:07;;;;;;;;;;;28.50;51.40;;;;;;5013189;28;19959;-69
2023/07/20 16:40:33;;;;;;;;;;;28.40;51.50;;;;;;5014758;28;19914;-69
2023/07/20 16:42:58;;;;;;;;;;;28.40;51.60;;;;;;5016034;28;19953;-67
2023/07/20 16:45:24;;;;;;;;;;;28.20;51.70;;;;;;5014305;28;19910;-68
2023/07/20 16:47:49;;;;;;;;;;;28.10;51.70;;;;;;5014289;28;19909;-69
2023/07/20 16:50:15;;;;;;;;;;;28.20;52.00;;;;;;5014333;28;20413;-68
2023/07/20 16:52:41;;;;;;;;;;;28.20;51.80;;;;;;5015169;28;20325;-69
2023/07/20 16:55:06;;;;;;;;;;;28.20;51.90;;;;;;5021166;28;19910;-68
2023/07/20 16:57:32;;;;;;;;;;;28.10;52.20;;;;;;5014073;28;19949;-69
2023/07/20 16:59:57;;;;;;;;;;;28.10;52.70;;;;;;5016878;28;19910;-69
2023/07/20 17:02:23;;;;;;;;;;;28.10;52.30;;;;;;5025032;28;20003;-68
2023/07/20 17:04:49;;;;;;;;;;;28.10;52.10;;;;;;5016434;28;20083;-68
2023/07/20 17:07:14;;;;;;;;;;;28.00;52.70;;;;;;5011721;28;19910;-68
2023/07/20 17:09:40;;;;;;;;;;;27.90;52.30;;;;;;5013863;28;19956;-68
2023/07/20 17:12:06;;;;;;;;;;;27.90;52.70;;;;;;5013804;28;19942;-69
2023/07/20 17:14:34;;;;;;;;;;;27.80;52.60;;;;;;5014440;28;20012;-69
2023/07/20 17:16:59;;;;;;;;;;;27.80;52.90;;;;;;5013050;28;20384;-68
2023/07/20 17:19:25;;;;;;;;;;;27.60;52.60;;;;;;5014256;28;19909;-68
2023/07/20 17:21:50;;;;;;;;;;;27.60;52.70;;;;;;5014245;28;20333;-69
2023/07/20 17:24:16;;;;;;;;;;;27.50;52.70;;;;;;5013905;28;19913;-68
2023/07/20 17:26:41;;;;;;;;;;;27.30;52.80;;;;;;5013695;28;20353;-69
2023/07/20 17:29:07;;;;;;;;;;;27.30;53.10;;;;;;5014413;28;20008;-69
2023/07/20 17:31:32;;;;;;;;;;;27.20;53.30;;;;;;5014979;28;19918;-68
2023/07/20 17:33:59;;;;;;;;;;;27.20;53.10;;;;;;5014478;28;20300;-69
2023/07/20 17:36:25;;;;;;;;;;;27.50;53.20;;;;;;5015290;28;19910;-70
2023/07/20 17:38:50;;;;;;;;;;;27.40;53.30;;;;;;5014654;28;19917;-69
2023/07/20 17:41:16;;;;;;;;;;;27.30;53.40;;;;;;5014754;28;19909;-69
2023/07/20 17:43:41;;;;;;;;;;;27.20;53.50;;;;;;5014371;28;19910;-69
2023/07/20 17:46:07;;;;;;;;;;;27.10;53.80;;;;;;5012371;28;19918;-68
2023/07/20 17:48:32;;;;;;;;;;;27.00;54.10;;;;;;5013795;28;20306;-67
2023/07/20 17:50:58;;;;;;;;;;;27.00;54.10;;;;;;5013750;28;19916;-69
2023/07/20 17:53:25;;;;;;;;;;;26.80;54.20;;;;;;5012485;28;20004;-69
2023/07/20 17:55:51;;;;;;;;;;;27.00;54.00;;;;;;5013549;28;19956;-68
2023/07/20 17:58:16;;;;;;;;;;;26.90;53.90;;;;;;5014162;28;19910;-69
2023/07/20 18:00:42;;;;;;;;;;;26.80;53.90;;;;;;5012523;28;19913;-68
2023/07/20 18:03:07;;;;;;;;;;;26.70;54.70;;;;;;5013464;28;19917;-68
2023/07/20 18:05:33;;;;;;;;;;;26.70;54.50;;;;;;5012449;28;19914;-69
2023/07/20 18:07:58;;;;;;;;;;;26.60;54.40;;;;;;5013858;28;19918;-69
2023/07/20 18:10:24;;;;;;;;;;;26.60;54.90;;;;;;5014111;28;19937;-69